sensor_id;sensor_type;location;lat;lon;timestamp;P1;durP1;ratioP1;P2;durP2;ratioP2
63555;SDS011;49700;48.072;7.800;2023-04-15T00:00:27;4.90;;;2.77;;
63555;SDS011;49700;48.072;7.800;2023-04-15T00:02:55;3.67;;;2.13;;
63555;SDS011;49700;48.072;7.800;2023-04-15T00:05:20;2.17;;;1.93;;
63555;SDS011;49700;48.072;7.800;2023-04-15T00:07:46;2.30;;;1.60;;
63555;SDS011;49700;48.072;7.800;2023-04-15T00:10:12;2.73;;;1.60;;
63555;SDS011;49700;48.072;7.800;2023-04-15T00:12:38;2.53;;;1.88;;
63555;SDS011;49700;48.072;7.800;2023-04-15T00:15:04;3.77;;;1.80;;
63555;SDS011;49700;48.072;7.800;2023-04-15T00:17:30;5.93;;;2.08;;
63555;SDS011;49700;48.072;7.800;2023-04-15T00:19:56;1.83;;;1.73;;
63555;SDS011;49700;48.072;7.800;2023-04-15T00:22:23;4.50;;;1.75;;
63555;SDS011;49700;48.072;7.800;2023-04-15T00:24:49;2.93;;;1.70;;
63555;SDS011;49700;48.072;7.800;2023-04-15T00:27:15;1.93;;;1.77;;
63555;SDS011;49700;48.072;7.800;2023-04-15T00:29:40;4.00;;;1.93;;
63555;SDS011;49700;48.072;7.800;2023-04-15T00:32:06;2.97;;;2.03;;
63555;SDS011;49700;48.072;7.800;2023-04-15T00:34:34;3.95;;;2.08;;
63555;SDS011;49700;48.072;7.800;2023-04-15T00:37:00;3.63;;;1.50;;
63555;SDS011;49700;48.072;7.800;2023-04-15T00:39:25;1.93;;;1.23;;
63555;SDS011;49700;48.072;7.800;2023-04-15T00:41:52;1.90;;;1.80;;
63555;SDS011;49700;48.072;7.800;2023-04-15T00:44:18;3.90;;;1.92;;
63555;SDS011;49700;48.072;7.800;2023-04-15T00:46:44;5.67;;;2.30;;
63555;SDS011;49700;48.072;7.800;2023-04-15T00:49:10;4.35;;;2.70;;
63555;SDS011;49700;48.072;7.800;2023-04-15T00:51:37;3.67;;;2.05;;
63555;SDS011;49700;48.072;7.800;2023-04-15T00:54:03;4.10;;;2.07;;
63555;SDS011;49700;48.072;7.800;2023-04-15T00:56:29;5.43;;;1.83;;
63555;SDS011;49700;48.072;7.800;2023-04-15T00:58:56;3.97;;;1.70;;
63555;SDS011;49700;48.072;7.800;2023-04-15T01:01:23;5.85;;;2.33;;
63555;SDS011;49700;48.072;7.800;2023-04-15T01:03:50;4.35;;;1.98;;
63555;SDS011;49700;48.072;7.800;2023-04-15T01:06:16;1.57;;;1.47;;
63555;SDS011;49700;48.072;7.800;2023-04-15T01:08:43;1.50;;;1.40;;
63555;SDS011;49700;48.072;7.800;2023-04-15T01:11:11;3.33;;;1.60;;
63555;SDS011;49700;48.072;7.800;2023-04-15T01:13:38;3.47;;;1.25;;
63555;SDS011;49700;48.072;7.800;2023-04-15T01:16:04;5.20;;;2.00;;
63555;SDS011;49700;48.072;7.800;2023-04-15T01:18:30;2.40;;;2.03;;
63555;SDS011;49700;48.072;7.800;2023-04-15T01:20:56;2.77;;;1.13;;
63555;SDS011;49700;48.072;7.800;2023-04-15T01:23:22;1.20;;;1.10;;
63555;SDS011;49700;48.072;7.800;2023-04-15T01:25:48;3.30;;;1.30;;
63555;SDS011;49700;48.072;7.800;2023-04-15T01:28:15;2.08;;;1.20;;
63555;SDS011;49700;48.072;7.800;2023-04-15T01:30:41;4.10;;;1.60;;
63555;SDS011;49700;48.072;7.800;2023-04-15T01:33:07;7.38;;;2.38;;
63555;SDS011;49700;48.072;7.800;2023-04-15T01:35:32;2.73;;;2.00;;
63555;SDS011;49700;48.072;7.800;2023-04-15T01:38:02;1.53;;;1.30;;
63555;SDS011;49700;48.072;7.800;2023-04-15T01:40:30;2.97;;;1.25;;
63555;SDS011;49700;48.072;7.800;2023-04-15T01:42:57;2.28;;;1.40;;
63555;SDS011;49700;48.072;7.800;2023-04-15T01:45:22;3.50;;;1.87;;
63555;SDS011;49700;48.072;7.800;2023-04-15T01:47:48;2.70;;;1.40;;
63555;SDS011;49700;48.072;7.800;2023-04-15T01:50:13;1.50;;;1.40;;
63555;SDS011;49700;48.072;7.800;2023-04-15T01:52:39;1.73;;;1.23;;
63555;SDS011;49700;48.072;7.800;2023-04-15T01:55:05;1.65;;;1.30;;
63555;SDS011;49700;48.072;7.800;2023-04-15T01:57:32;3.63;;;1.45;;
63555;SDS011;49700;48.072;7.800;2023-04-15T01:59:59;2.58;;;1.70;;
63555;SDS011;49700;48.072;7.800;2023-04-15T02:02:24;1.57;;;1.17;;
63555;SDS011;49700;48.072;7.800;2023-04-15T02:04:49;2.70;;;1.57;;
63555;SDS011;49700;48.072;7.800;2023-04-15T02:07:15;1.47;;;1.33;;
63555;SDS011;49700;48.072;7.800;2023-04-15T02:09:40;2.50;;;1.67;;
63555;SDS011;49700;48.072;7.800;2023-04-15T02:12:06;4.88;;;1.63;;
63555;SDS011;49700;48.072;7.800;2023-04-15T02:14:32;4.27;;;1.63;;
63555;SDS011;49700;48.072;7.800;2023-04-15T02:16:57;3.70;;;1.63;;
63555;SDS011;49700;48.072;7.800;2023-04-15T02:19:30;2.00;;;1.30;;
63555;SDS011;49700;48.072;7.800;2023-04-15T02:21:56;2.90;;;1.60;;
63555;SDS011;49700;48.072;7.800;2023-04-15T02:24:21;2.23;;;1.47;;
63555;SDS011;49700;48.072;7.800;2023-04-15T02:26:46;1.90;;;1.50;;
63555;SDS011;49700;48.072;7.800;2023-04-15T02:29:13;3.28;;;1.33;;
63555;SDS011;49700;48.072;7.800;2023-04-15T02:31:39;2.90;;;1.70;;
63555;SDS011;49700;48.072;7.800;2023-04-15T02:34:06;1.67;;;1.10;;
63555;SDS011;49700;48.072;7.800;2023-04-15T02:36:32;3.25;;;1.58;;
63555;SDS011;49700;48.072;7.800;2023-04-15T02:38:58;3.00;;;1.45;;
63555;SDS011;49700;48.072;7.800;2023-04-15T02:41:25;2.08;;;1.55;;
63555;SDS011;49700;48.072;7.800;2023-04-15T02:43:52;2.30;;;1.35;;
63555;SDS011;49700;48.072;7.800;2023-04-15T02:46:18;1.53;;;1.43;;
63555;SDS011;49700;48.072;7.800;2023-04-15T02:48:43;2.00;;;1.17;;
63555;SDS011;49700;48.072;7.800;2023-04-15T02:53:42;1.33;;;1.10;;
63555;SDS011;49700;48.072;7.800;2023-04-15T02:56:07;3.40;;;1.40;;
63555;SDS011;49700;48.072;7.800;2023-04-15T02:58:34;1.53;;;1.10;;
63555;SDS011;49700;48.072;7.800;2023-04-15T03:01:00;3.88;;;1.50;;
63555;SDS011;49700;48.072;7.800;2023-04-15T03:03:25;2.73;;;1.17;;
63555;SDS011;49700;48.072;7.800;2023-04-15T03:05:52;2.03;;;1.23;;
63555;SDS011;49700;48.072;7.800;2023-04-15T03:08:17;1.87;;;0.90;;
63555;SDS011;49700;48.072;7.800;2023-04-15T03:10:43;1.43;;;1.10;;
63555;SDS011;49700;48.072;7.800;2023-04-15T03:13:09;2.20;;;1.30;;
63555;SDS011;49700;48.072;7.800;2023-04-15T03:15:34;1.90;;;1.10;;
63555;SDS011;49700;48.072;7.800;2023-04-15T03:18:00;1.37;;;1.27;;
63555;SDS011;49700;48.072;7.800;2023-04-15T03:20:25;1.73;;;1.27;;
63555;SDS011;49700;48.072;7.800;2023-04-15T03:22:51;1.70;;;1.13;;
63555;SDS011;49700;48.072;7.800;2023-04-15T03:25:19;2.05;;;1.23;;
63555;SDS011;49700;48.072;7.800;2023-04-15T03:27:44;1.53;;;1.00;;
63555;SDS011;49700;48.072;7.800;2023-04-15T03:30:11;3.72;;;0.90;;
63555;SDS011;49700;48.072;7.800;2023-04-15T03:32:37;1.70;;;1.20;;
63555;SDS011;49700;48.072;7.800;2023-04-15T03:35:05;3.83;;;1.20;;
63555;SDS011;49700;48.072;7.800;2023-04-15T03:37:30;2.37;;;1.20;;
63555;SDS011;49700;48.072;7.800;2023-04-15T03:39:56;1.33;;;1.00;;
63555;SDS011;49700;48.072;7.800;2023-04-15T03:42:21;2.03;;;1.20;;
63555;SDS011;49700;48.072;7.800;2023-04-15T03:44:47;2.07;;;0.97;;
63555;SDS011;49700;48.072;7.800;2023-04-15T03:47:12;1.53;;;1.07;;
63555;SDS011;49700;48.072;7.800;2023-04-15T03:49:37;1.20;;;1.00;;
63555;SDS011;49700;48.072;7.800;2023-04-15T03:52:03;1.83;;;1.00;;
63555;SDS011;49700;48.072;7.800;2023-04-15T03:54:29;1.90;;;1.67;;
63555;SDS011;49700;48.072;7.800;2023-04-15T03:56:54;2.23;;;1.30;;
63555;SDS011;49700;48.072;7.800;2023-04-15T03:59:20;2.30;;;1.40;;
63555;SDS011;49700;48.072;7.800;2023-04-15T04:01:46;5.83;;;1.20;;
63555;SDS011;49700;48.072;7.800;2023-04-15T04:04:11;1.53;;;0.90;;
63555;SDS011;49700;48.072;7.800;2023-04-15T04:09:27;3.38;;;1.50;;
63555;SDS011;49700;48.072;7.800;2023-04-15T04:11:52;1.87;;;1.37;;
63555;SDS011;49700;48.072;7.800;2023-04-15T04:14:18;1.53;;;0.90;;
63555;SDS011;49700;48.072;7.800;2023-04-15T04:16:43;10.20;;;3.63;;
63555;SDS011;49700;48.072;7.800;2023-04-15T04:19:09;1.40;;;1.00;;
63555;SDS011;49700;48.072;7.800;2023-04-15T04:21:34;1.87;;;1.03;;
63555;SDS011;49700;48.072;7.800;2023-04-15T04:24:00;4.30;;;1.57;;
63555;SDS011;49700;48.072;7.800;2023-04-15T04:26:26;1.93;;;1.40;;
63555;SDS011;49700;48.072;7.800;2023-04-15T04:28:51;1.47;;;1.37;;
63555;SDS011;49700;48.072;7.800;2023-04-15T04:31:17;1.70;;;1.40;;
63555;SDS011;49700;48.072;7.800;2023-04-15T04:33:42;1.77;;;1.10;;
63555;SDS011;49700;48.072;7.800;2023-04-15T04:36:08;2.07;;;1.40;;
63555;SDS011;49700;48.072;7.800;2023-04-15T04:38:33;1.63;;;1.00;;
63555;SDS011;49700;48.072;7.800;2023-04-15T04:40:59;3.07;;;1.40;;
63555;SDS011;49700;48.072;7.800;2023-04-15T04:43:25;2.67;;;1.40;;
63555;SDS011;49700;48.072;7.800;2023-04-15T04:45:51;1.02;;;0.90;;
63555;SDS011;49700;48.072;7.800;2023-04-15T04:48:16;2.20;;;1.33;;
63555;SDS011;49700;48.072;7.800;2023-04-15T04:50:41;3.20;;;1.97;;
63555;SDS011;49700;48.072;7.800;2023-04-15T04:53:08;3.40;;;1.33;;
63555;SDS011;49700;48.072;7.800;2023-04-15T04:55:34;2.60;;;1.40;;
63555;SDS011;49700;48.072;7.800;2023-04-15T04:58:01;2.28;;;1.38;;
63555;SDS011;49700;48.072;7.800;2023-04-15T05:00:27;4.13;;;1.57;;
63555;SDS011;49700;48.072;7.800;2023-04-15T05:02:53;3.42;;;1.48;;
63555;SDS011;49700;48.072;7.800;2023-04-15T05:05:18;1.30;;;1.20;;
63555;SDS011;49700;48.072;7.800;2023-04-15T05:07:46;3.85;;;1.70;;
63555;SDS011;49700;48.072;7.800;2023-04-15T05:10:13;1.67;;;1.15;;
63555;SDS011;49700;48.072;7.800;2023-04-15T05:12:39;2.35;;;1.40;;
63555;SDS011;49700;48.072;7.800;2023-04-15T05:15:05;2.10;;;1.17;;
63555;SDS011;49700;48.072;7.800;2023-04-15T05:17:31;3.40;;;1.10;;
63555;SDS011;49700;48.072;7.800;2023-04-15T05:19:57;2.03;;;1.42;;
63555;SDS011;49700;48.072;7.800;2023-04-15T05:22:22;4.70;;;1.20;;
63555;SDS011;49700;48.072;7.800;2023-04-15T05:24:48;1.90;;;1.50;;
63555;SDS011;49700;48.072;7.800;2023-04-15T05:27:13;2.87;;;1.40;;
63555;SDS011;49700;48.072;7.800;2023-04-15T05:29:38;1.90;;;1.60;;
63555;SDS011;49700;48.072;7.800;2023-04-15T05:32:04;1.47;;;1.30;;
63555;SDS011;49700;48.072;7.800;2023-04-15T05:34:30;2.13;;;1.27;;
63555;SDS011;49700;48.072;7.800;2023-04-15T05:36:55;1.67;;;1.40;;
63555;SDS011;49700;48.072;7.800;2023-04-15T05:39:20;1.17;;;1.07;;
63555;SDS011;49700;48.072;7.800;2023-04-15T05:41:46;1.37;;;1.27;;
63555;SDS011;49700;48.072;7.800;2023-04-15T05:44:12;1.87;;;1.30;;
63555;SDS011;49700;48.072;7.800;2023-04-15T05:46:37;2.93;;;1.40;;
63555;SDS011;49700;48.072;7.800;2023-04-15T05:49:02;1.67;;;1.57;;
63555;SDS011;49700;48.072;7.800;2023-04-15T05:51:28;2.93;;;1.57;;
63555;SDS011;49700;48.072;7.800;2023-04-15T05:53:53;2.43;;;1.50;;
63555;SDS011;49700;48.072;7.800;2023-04-15T05:56:19;2.27;;;1.70;;
63555;SDS011;49700;48.072;7.800;2023-04-15T05:58:44;2.77;;;1.27;;
63555;SDS011;49700;48.072;7.800;2023-04-15T06:01:10;2.17;;;1.10;;
63555;SDS011;49700;48.072;7.800;2023-04-15T06:03:36;1.40;;;1.17;;
63555;SDS011;49700;48.072;7.800;2023-04-15T06:06:02;1.70;;;1.50;;
63555;SDS011;49700;48.072;7.800;2023-04-15T06:08:27;6.13;;;1.63;;
63555;SDS011;49700;48.072;7.800;2023-04-15T06:10:53;2.17;;;1.50;;
63555;SDS011;49700;48.072;7.800;2023-04-15T06:13:18;2.70;;;1.10;;
63555;SDS011;49700;48.072;7.800;2023-04-15T06:15:44;1.97;;;1.00;;
63555;SDS011;49700;48.072;7.800;2023-04-15T06:18:09;2.27;;;1.07;;
63555;SDS011;49700;48.072;7.800;2023-04-15T06:20:35;3.35;;;1.38;;
63555;SDS011;49700;48.072;7.800;2023-04-15T06:23:01;1.97;;;1.03;;
63555;SDS011;49700;48.072;7.800;2023-04-15T06:25:27;3.57;;;1.70;;
63555;SDS011;49700;48.072;7.800;2023-04-15T06:27:52;3.60;;;1.73;;
63555;SDS011;49700;48.072;7.800;2023-04-15T06:30:17;2.97;;;1.60;;
63555;SDS011;49700;48.072;7.800;2023-04-15T06:32:43;1.53;;;1.10;;
63555;SDS011;49700;48.072;7.800;2023-04-15T06:35:08;1.67;;;1.27;;
63555;SDS011;49700;48.072;7.800;2023-04-15T06:37:34;2.47;;;1.27;;
63555;SDS011;49700;48.072;7.800;2023-04-15T06:39:59;2.00;;;1.60;;
63555;SDS011;49700;48.072;7.800;2023-04-15T06:42:25;1.47;;;1.37;;
63555;SDS011;49700;48.072;7.800;2023-04-15T06:44:50;1.33;;;1.23;;
63555;SDS011;49700;48.072;7.800;2023-04-15T06:47:16;1.43;;;1.20;;
63555;SDS011;49700;48.072;7.800;2023-04-15T06:49:41;1.40;;;1.30;;
63555;SDS011;49700;48.072;7.800;2023-04-15T06:52:07;1.60;;;1.40;;
63555;SDS011;49700;48.072;7.800;2023-04-15T06:54:33;1.43;;;1.20;;
63555;SDS011;49700;48.072;7.800;2023-04-15T06:56:58;2.63;;;1.23;;
63555;SDS011;49700;48.072;7.800;2023-04-15T06:59:24;1.65;;;1.08;;
63555;SDS011;49700;48.072;7.800;2023-04-15T07:01:51;2.28;;;1.70;;
63555;SDS011;49700;48.072;7.800;2023-04-15T07:04:16;2.90;;;1.50;;
63555;SDS011;49700;48.072;7.800;2023-04-15T07:06:42;1.83;;;1.40;;
63555;SDS011;49700;48.072;7.800;2023-04-15T07:09:08;1.70;;;1.60;;
63555;SDS011;49700;48.072;7.800;2023-04-15T07:11:34;2.57;;;1.70;;
63555;SDS011;49700;48.072;7.800;2023-04-15T07:14:00;2.10;;;1.45;;
63555;SDS011;49700;48.072;7.800;2023-04-15T07:16:26;3.03;;;2.00;;
63555;SDS011;49700;48.072;7.800;2023-04-15T07:18:51;3.27;;;1.83;;
63555;SDS011;49700;48.072;7.800;2023-04-15T07:21:17;3.90;;;1.67;;
63555;SDS011;49700;48.072;7.800;2023-04-15T07:23:42;2.30;;;1.67;;
63555;SDS011;49700;48.072;7.800;2023-04-15T07:26:10;2.77;;;2.00;;
63555;SDS011;49700;48.072;7.800;2023-04-15T07:28:36;2.17;;;1.98;;
63555;SDS011;49700;48.072;7.800;2023-04-15T07:31:01;2.73;;;1.93;;
63555;SDS011;49700;48.072;7.800;2023-04-15T07:33:27;3.37;;;2.37;;
63555;SDS011;49700;48.072;7.800;2023-04-15T07:35:52;4.67;;;2.10;;
63555;SDS011;49700;48.072;7.800;2023-04-15T07:38:19;4.70;;;2.30;;
63555;SDS011;49700;48.072;7.800;2023-04-15T07:40:45;3.17;;;2.05;;
63555;SDS011;49700;48.072;7.800;2023-04-15T07:43:11;2.20;;;1.63;;
63555;SDS011;49700;48.072;7.800;2023-04-15T07:45:37;4.38;;;2.75;;
63555;SDS011;49700;48.072;7.800;2023-04-15T07:48:02;2.43;;;2.23;;
63555;SDS011;49700;48.072;7.800;2023-04-15T07:50:28;2.23;;;2.03;;
63555;SDS011;49700;48.072;7.800;2023-04-15T07:52:54;2.60;;;2.40;;
63555;SDS011;49700;48.072;7.800;2023-04-15T07:55:20;4.77;;;2.93;;
63555;SDS011;49700;48.072;7.800;2023-04-15T07:57:47;2.45;;;2.25;;
63555;SDS011;49700;48.072;7.800;2023-04-15T08:00:13;3.20;;;2.77;;
63555;SDS011;49700;48.072;7.800;2023-04-15T08:02:42;4.43;;;2.88;;
63555;SDS011;49700;48.072;7.800;2023-04-15T08:05:08;5.60;;;3.17;;
63555;SDS011;49700;48.072;7.800;2023-04-15T08:07:35;5.43;;;2.78;;
63555;SDS011;49700;48.072;7.800;2023-04-15T08:10:01;4.03;;;2.33;;
63555;SDS011;49700;48.072;7.800;2023-04-15T08:12:26;2.10;;;1.90;;
63555;SDS011;49700;48.072;7.800;2023-04-15T08:14:52;3.20;;;2.90;;
63555;SDS011;49700;48.072;7.800;2023-04-15T08:17:19;3.92;;;2.67;;
63555;SDS011;49700;48.072;7.800;2023-04-15T08:19:44;2.83;;;1.93;;
63555;SDS011;49700;48.072;7.800;2023-04-15T08:22:12;2.17;;;1.98;;
63555;SDS011;49700;48.072;7.800;2023-04-15T08:24:38;4.37;;;2.23;;
63555;SDS011;49700;48.072;7.800;2023-04-15T08:27:03;2.43;;;1.93;;
63555;SDS011;49700;48.072;7.800;2023-04-15T08:29:30;1.85;;;1.73;;
63555;SDS011;49700;48.072;7.800;2023-04-15T08:31:56;3.33;;;1.95;;
63555;SDS011;49700;48.072;7.800;2023-04-15T08:34:22;3.60;;;2.45;;
63555;SDS011;49700;48.072;7.800;2023-04-15T08:36:48;3.60;;;2.38;;
63555;SDS011;49700;48.072;7.800;2023-04-15T08:39:13;2.90;;;2.03;;
63555;SDS011;49700;48.072;7.800;2023-04-15T08:41:40;3.20;;;2.77;;
63555;SDS011;49700;48.072;7.800;2023-04-15T08:44:12;3.35;;;1.90;;
63555;SDS011;49700;48.072;7.800;2023-04-15T08:46:38;2.13;;;1.83;;
63555;SDS011;49700;48.072;7.800;2023-04-15T08:49:07;2.65;;;2.38;;
63555;SDS011;49700;48.072;7.800;2023-04-15T08:51:34;2.30;;;2.10;;
63555;SDS011;49700;48.072;7.800;2023-04-15T08:54:00;8.53;;;4.37;;
63555;SDS011;49700;48.072;7.800;2023-04-15T08:56:27;3.30;;;2.42;;
63555;SDS011;49700;48.072;7.800;2023-04-15T08:58:55;2.97;;;2.13;;
63555;SDS011;49700;48.072;7.800;2023-04-15T09:01:21;2.65;;;2.45;;
63555;SDS011;49700;48.072;7.800;2023-04-15T09:03:47;5.60;;;2.43;;
63555;SDS011;49700;48.072;7.800;2023-04-15T09:06:13;2.83;;;1.93;;
63555;SDS011;49700;48.072;7.800;2023-04-15T09:08:41;4.43;;;2.17;;
63555;SDS011;49700;48.072;7.800;2023-04-15T09:11:06;2.17;;;1.73;;
63555;SDS011;49700;48.072;7.800;2023-04-15T09:13:32;2.03;;;1.70;;
63555;SDS011;49700;48.072;7.800;2023-04-15T09:15:57;1.90;;;1.47;;
63555;SDS011;49700;48.072;7.800;2023-04-15T09:18:31;2.38;;;1.48;;
63555;SDS011;49700;48.072;7.800;2023-04-15T09:21:03;2.75;;;2.00;;
63555;SDS011;49700;48.072;7.800;2023-04-15T09:23:31;3.92;;;2.00;;
63555;SDS011;49700;48.072;7.800;2023-04-15T09:25:57;1.70;;;1.60;;
63555;SDS011;49700;48.072;7.800;2023-04-15T09:28:23;2.60;;;2.10;;
63555;SDS011;49700;48.072;7.800;2023-04-15T09:30:59;4.80;;;2.47;;
63555;SDS011;49700;48.072;7.800;2023-04-15T09:33:26;2.20;;;1.98;;
63555;SDS011;49700;48.072;7.800;2023-04-15T09:36:10;3.50;;;1.95;;
63555;SDS011;49700;48.072;7.800;2023-04-15T09:38:35;2.05;;;1.80;;
63555;SDS011;49700;48.072;7.800;2023-04-15T09:41:19;5.03;;;2.22;;
63555;SDS011;49700;48.072;7.800;2023-04-15T09:43:44;3.10;;;1.80;;
63555;SDS011;49700;48.072;7.800;2023-04-15T09:46:10;2.80;;;1.63;;
63555;SDS011;49700;48.072;7.800;2023-04-15T09:48:35;1.87;;;1.77;;
63555;SDS011;49700;48.072;7.800;2023-04-15T09:51:01;2.93;;;1.90;;
63555;SDS011;49700;48.072;7.800;2023-04-15T09:53:26;2.40;;;1.73;;
63555;SDS011;49700;48.072;7.800;2023-04-15T09:55:56;2.40;;;1.90;;
63555;SDS011;49700;48.072;7.800;2023-04-15T09:58:24;2.72;;;2.30;;
63555;SDS011;49700;48.072;7.800;2023-04-15T10:00:52;2.60;;;1.80;;
63555;SDS011;49700;48.072;7.800;2023-04-15T10:05:46;3.20;;;2.05;;
63555;SDS011;49700;48.072;7.800;2023-04-15T10:08:12;2.17;;;1.80;;
63555;SDS011;49700;48.072;7.800;2023-04-15T10:10:40;2.15;;;1.95;;
63555;SDS011;49700;48.072;7.800;2023-04-15T10:13:05;1.90;;;1.80;;
63555;SDS011;49700;48.072;7.800;2023-04-15T10:15:31;2.53;;;2.03;;
63555;SDS011;49700;48.072;7.800;2023-04-15T10:17:58;2.22;;;2.03;;
63555;SDS011;49700;48.072;7.800;2023-04-15T10:20:25;1.90;;;1.80;;
63555;SDS011;49700;48.072;7.800;2023-04-15T10:22:53;2.72;;;2.38;;
63555;SDS011;49700;48.072;7.800;2023-04-15T10:25:19;2.17;;;1.98;;
63555;SDS011;49700;48.072;7.800;2023-04-15T10:27:45;2.40;;;1.67;;
63555;SDS011;49700;48.072;7.800;2023-04-15T10:30:12;3.17;;;2.25;;
63555;SDS011;49700;48.072;7.800;2023-04-15T10:32:39;3.67;;;1.67;;
63555;SDS011;49700;48.072;7.800;2023-04-15T10:35:05;2.60;;;1.35;;
63555;SDS011;49700;48.072;7.800;2023-04-15T10:37:34;3.75;;;2.10;;
63555;SDS011;49700;48.072;7.800;2023-04-15T10:40:21;2.55;;;1.50;;
63555;SDS011;49700;48.072;7.800;2023-04-15T10:42:57;1.63;;;1.35;;
63555;SDS011;49700;48.072;7.800;2023-04-15T10:45:25;2.10;;;1.42;;
63555;SDS011;49700;48.072;7.800;2023-04-15T10:48:05;3.47;;;1.70;;
63555;SDS011;49700;48.072;7.800;2023-04-15T10:50:32;2.58;;;1.42;;
63555;SDS011;49700;48.072;7.800;2023-04-15T10:52:58;1.27;;;1.17;;
63555;SDS011;49700;48.072;7.800;2023-04-15T10:55:26;2.75;;;1.50;;
63555;SDS011;49700;48.072;7.800;2023-04-15T10:57:59;3.45;;;2.03;;
63555;SDS011;49700;48.072;7.800;2023-04-15T11:00:29;4.97;;;2.05;;
63555;SDS011;49700;48.072;7.800;2023-04-15T11:05:47;2.50;;;2.30;;
63555;SDS011;49700;48.072;7.800;2023-04-15T11:08:11;2.60;;;2.13;;
63555;SDS011;49700;48.072;7.800;2023-04-15T11:13:13;3.30;;;1.83;;
63555;SDS011;49700;48.072;7.800;2023-04-15T11:15:44;3.08;;;2.60;;
63555;SDS011;49700;48.072;7.800;2023-04-15T11:20:53;2.65;;;2.42;;
63555;SDS011;49700;48.072;7.800;2023-04-15T11:23:28;3.47;;;2.97;;
63555;SDS011;49700;48.072;7.800;2023-04-15T11:25:59;3.67;;;2.70;;
63555;SDS011;49700;48.072;7.800;2023-04-15T11:28:29;4.30;;;2.28;;
63555;SDS011;49700;48.072;7.800;2023-04-15T11:30:55;2.80;;;2.50;;
63555;SDS011;49700;48.072;7.800;2023-04-15T11:33:21;2.93;;;2.37;;
63555;SDS011;49700;48.072;7.800;2023-04-15T11:35:48;4.40;;;2.70;;
63555;SDS011;49700;48.072;7.800;2023-04-15T11:38:14;3.27;;;2.37;;
63555;SDS011;49700;48.072;7.800;2023-04-15T11:40:41;2.85;;;2.10;;
63555;SDS011;49700;48.072;7.800;2023-04-15T11:43:08;2.60;;;2.33;;
63555;SDS011;49700;48.072;7.800;2023-04-15T11:45:35;5.63;;;3.05;;
63555;SDS011;49700;48.072;7.800;2023-04-15T11:48:09;3.67;;;2.53;;
63555;SDS011;49700;48.072;7.800;2023-04-15T11:50:36;3.78;;;2.55;;
63555;SDS011;49700;48.072;7.800;2023-04-15T11:53:04;3.38;;;2.20;;
63555;SDS011;49700;48.072;7.800;2023-04-15T11:55:39;3.05;;;2.40;;
63555;SDS011;49700;48.072;7.800;2023-04-15T12:00:40;5.53;;;2.30;;
63555;SDS011;49700;48.072;7.800;2023-04-15T12:06:06;5.20;;;2.10;;
63555;SDS011;49700;48.072;7.800;2023-04-15T12:08:52;4.40;;;2.38;;
63555;SDS011;49700;48.072;7.800;2023-04-15T12:11:20;2.35;;;1.98;;
63555;SDS011;49700;48.072;7.800;2023-04-15T12:13:57;3.45;;;1.90;;
63555;SDS011;49700;48.072;7.800;2023-04-15T12:19:10;4.95;;;1.90;;
63555;SDS011;49700;48.072;7.800;2023-04-15T12:21:39;2.13;;;1.92;;
63555;SDS011;49700;48.072;7.800;2023-04-15T12:24:07;2.92;;;1.75;;
63555;SDS011;49700;48.072;7.800;2023-04-15T12:26:51;1.95;;;1.52;;
63555;SDS011;49700;48.072;7.800;2023-04-15T12:29:19;3.38;;;1.92;;
63555;SDS011;49700;48.072;7.800;2023-04-15T12:31:53;2.38;;;1.45;;
63555;SDS011;49700;48.072;7.800;2023-04-15T12:34:31;2.63;;;1.50;;
63555;SDS011;49700;48.072;7.800;2023-04-15T12:36:58;3.35;;;1.52;;
63555;SDS011;49700;48.072;7.800;2023-04-15T12:39:25;2.07;;;1.30;;
63555;SDS011;49700;48.072;7.800;2023-04-15T12:41:53;3.67;;;1.60;;
63555;SDS011;49700;48.072;7.800;2023-04-15T12:44:21;2.00;;;1.80;;
63555;SDS011;49700;48.072;7.800;2023-04-15T12:46:48;1.83;;;1.50;;
63555;SDS011;49700;48.072;7.800;2023-04-15T12:49:14;3.27;;;2.03;;
63555;SDS011;49700;48.072;7.800;2023-04-15T12:51:40;3.23;;;2.47;;
63555;SDS011;49700;48.072;7.800;2023-04-15T12:54:06;1.97;;;1.77;;
63555;SDS011;49700;48.072;7.800;2023-04-15T12:56:32;3.30;;;2.43;;
63555;SDS011;49700;48.072;7.800;2023-04-15T12:58:57;3.90;;;2.10;;
63555;SDS011;49700;48.072;7.800;2023-04-15T13:01:22;3.23;;;1.70;;
63555;SDS011;49700;48.072;7.800;2023-04-15T13:03:48;2.90;;;2.17;;
63555;SDS011;49700;48.072;7.800;2023-04-15T13:06:15;3.27;;;2.00;;
63555;SDS011;49700;48.072;7.800;2023-04-15T13:08:40;3.07;;;1.20;;
63555;SDS011;49700;48.072;7.800;2023-04-15T13:11:06;1.90;;;1.30;;
63555;SDS011;49700;48.072;7.800;2023-04-15T13:13:31;1.50;;;1.20;;
63555;SDS011;49700;48.072;7.800;2023-04-15T13:16:09;1.95;;;1.20;;
63555;SDS011;49700;48.072;7.800;2023-04-15T13:18:34;2.97;;;1.90;;
63555;SDS011;49700;48.072;7.800;2023-04-15T13:21:00;4.30;;;1.80;;
63555;SDS011;49700;48.072;7.800;2023-04-15T13:23:26;3.53;;;2.07;;
63555;SDS011;49700;48.072;7.800;2023-04-15T13:25:51;3.43;;;1.40;;
63555;SDS011;49700;48.072;7.800;2023-04-15T13:28:17;2.63;;;1.40;;
63555;SDS011;49700;48.072;7.800;2023-04-15T13:30:42;2.57;;;1.60;;
63555;SDS011;49700;48.072;7.800;2023-04-15T13:33:11;2.60;;;1.30;;
63555;SDS011;49700;48.072;7.800;2023-04-15T13:35:39;1.80;;;1.47;;
63555;SDS011;49700;48.072;7.800;2023-04-15T13:38:05;2.40;;;1.30;;
63555;SDS011;49700;48.072;7.800;2023-04-15T13:40:30;3.57;;;1.70;;
63555;SDS011;49700;48.072;7.800;2023-04-15T13:42:56;2.70;;;1.80;;
63555;SDS011;49700;48.072;7.800;2023-04-15T13:45:32;2.40;;;1.70;;
63555;SDS011;49700;48.072;7.800;2023-04-15T13:47:57;2.80;;;1.93;;
63555;SDS011;49700;48.072;7.800;2023-04-15T13:50:26;2.90;;;1.90;;
63555;SDS011;49700;48.072;7.800;2023-04-15T13:52:52;2.00;;;1.57;;
63555;SDS011;49700;48.072;7.800;2023-04-15T13:55:17;2.10;;;1.67;;
63555;SDS011;49700;48.072;7.800;2023-04-15T13:57:43;2.97;;;1.60;;
63555;SDS011;49700;48.072;7.800;2023-04-15T14:00:09;2.93;;;1.70;;
63555;SDS011;49700;48.072;7.800;2023-04-15T14:02:35;4.30;;;2.23;;
63555;SDS011;49700;48.072;7.800;2023-04-15T14:05:00;2.97;;;1.40;;
63555;SDS011;49700;48.072;7.800;2023-04-15T14:07:27;1.93;;;1.20;;
63555;SDS011;49700;48.072;7.800;2023-04-15T14:09:55;1.30;;;1.20;;
63555;SDS011;49700;48.072;7.800;2023-04-15T14:12:20;1.10;;;0.90;;
63555;SDS011;49700;48.072;7.800;2023-04-15T14:14:46;1.87;;;1.20;;
63555;SDS011;49700;48.072;7.800;2023-04-15T14:17:11;1.97;;;1.10;;
63555;SDS011;49700;48.072;7.800;2023-04-15T14:19:37;3.10;;;1.10;;
63555;SDS011;49700;48.072;7.800;2023-04-15T14:22:02;1.63;;;0.90;;
63555;SDS011;49700;48.072;7.800;2023-04-15T14:24:28;1.97;;;1.10;;
63555;SDS011;49700;48.072;7.800;2023-04-15T14:26:53;1.27;;;1.10;;
63555;SDS011;49700;48.072;7.800;2023-04-15T14:29:19;1.10;;;1.00;;
63555;SDS011;49700;48.072;7.800;2023-04-15T14:31:44;2.03;;;0.90;;
63555;SDS011;49700;48.072;7.800;2023-04-15T14:34:10;3.43;;;1.00;;
63555;SDS011;49700;48.072;7.800;2023-04-15T14:36:35;1.50;;;1.00;;
63555;SDS011;49700;48.072;7.800;2023-04-15T14:39:01;3.03;;;1.00;;
63555;SDS011;49700;48.072;7.800;2023-04-15T14:41:28;2.53;;;0.90;;
63555;SDS011;49700;48.072;7.800;2023-04-15T14:43:54;1.10;;;1.00;;
63555;SDS011;49700;48.072;7.800;2023-04-15T14:46:20;1.90;;;1.10;;
63555;SDS011;49700;48.072;7.800;2023-04-15T14:48:46;1.60;;;1.10;;
63555;SDS011;49700;48.072;7.800;2023-04-15T14:51:12;1.27;;;1.17;;
63555;SDS011;49700;48.072;7.800;2023-04-15T14:53:41;2.03;;;1.20;;
63555;SDS011;49700;48.072;7.800;2023-04-15T14:56:06;1.47;;;1.10;;
63555;SDS011;49700;48.072;7.800;2023-04-15T14:58:32;2.07;;;1.40;;
63555;SDS011;49700;48.072;7.800;2023-04-15T15:00:57;2.17;;;1.27;;
63555;SDS011;49700;48.072;7.800;2023-04-15T15:03:23;1.33;;;1.20;;
63555;SDS011;49700;48.072;7.800;2023-04-15T15:05:48;3.30;;;3.03;;
63555;SDS011;49700;48.072;7.800;2023-04-15T15:08:14;3.93;;;1.40;;